createdAt,value
2019-01-02T00:02:26.992Z,73.80
2019-01-02T00:04:54.311Z,73.50
2019-01-02T00:07:22.461Z,73.90
2019-01-02T00:09:50.197Z,74.20
2019-01-02T00:12:18.076Z,73.60
2019-01-02T00:14:45.505Z,72.20
2019-01-02T00:17:12.917Z,72.10
2019-01-02T00:19:40.322Z,73.80
2019-01-02T00:22:07.692Z,73.70
2019-01-02T00:24:35.007Z,72.60
2019-01-02T00:27:02.411Z,73.70
2019-01-02T00:29:30.113Z,72.40
2019-01-02T00:31:57.509Z,73.50
2019-01-02T00:34:25.122Z,72.10
2019-01-02T00:36:52.551Z,71.80
2019-01-02T00:39:20.339Z,71.90
2019-01-02T00:41:47.733Z,71.20
2019-01-02T00:44:15.693Z,72.70
2019-01-02T00:46:43.097Z,72.30
2019-01-02T00:49:10.697Z,72.80
2019-01-02T00:51:38.051Z,72.90
2019-01-02T00:54:05.878Z,72.80
2019-01-02T00:56:33.303Z,73.60
2019-01-02T00:59:01.053Z,73.50
2019-01-02T01:01:28.457Z,72.00
2019-01-02T01:03:56.047Z,74.20
2019-01-02T01:06:23.476Z,74.10
2019-01-02T01:08:50.846Z,73.50
2019-01-02T01:11:18.277Z,72.40
2019-01-02T01:13:46.003Z,72.10
2019-01-02T01:16:13.435Z,70.90
2019-01-02T01:18:40.835Z,70.90
2019-01-02T01:21:08.261Z,72.10
2019-01-02T01:23:35.983Z,71.00
2019-01-02T01:26:03.390Z,71.90
2019-01-02T01:28:31.128Z,71.00
2019-01-02T01:30:58.422Z,72.30
2019-01-02T01:33:26.522Z,72.30
2019-01-02T01:35:54.246Z,73.60
2019-01-02T01:38:21.636Z,73.70
2019-01-02T01:40:49.486Z,73.70
2019-01-02T01:43:16.917Z,73.10
2019-01-02T01:45:44.347Z,72.20
2019-01-02T01:48:12.051Z,73.30
2019-01-02T01:50:39.751Z,71.60
2019-01-02T01:53:07.695Z,72.00
2019-01-02T01:55:35.093Z,72.90
2019-01-02T01:58:02.833Z,72.80
2019-01-02T02:00:30.272Z,72.50
2019-01-02T02:02:57.682Z,72.70
2019-01-02T02:05:25.716Z,71.70
2019-01-02T02:07:53.134Z,71.70
2019-01-02T02:10:20.499Z,67.00
2019-01-02T02:12:47.801Z,68.30
2019-01-02T02:15:15.227Z,67.70
2019-01-02T02:17:42.997Z,69.60
2019-01-02T02:20:11.781Z,69.10
2019-01-02T02:22:39.236Z,69.90
2019-01-02T02:25:09.181Z,69.50
2019-01-02T02:27:39.511Z,68.50
2019-01-02T02:30:09.114Z,70.00
2019-01-02T02:32:36.509Z,69.70
2019-01-02T02:35:04.057Z,69.60
2019-01-02T02:37:31.471Z,69.30
2019-01-02T02:39:58.896Z,67.60
2019-01-02T02:42:26.312Z,68.00
2019-01-02T02:44:54.155Z,67.10
2019-01-02T02:47:21.946Z,69.50
2019-01-02T02:49:49.673Z,69.40
2019-01-02T02:52:17.120Z,69.40
2019-01-02T02:54:44.513Z,68.70
2019-01-02T02:57:11.940Z,68.20
2019-01-02T02:59:39.335Z,67.30
2019-01-02T03:02:07.163Z,66.00
2019-01-02T03:04:35.231Z,65.00
2019-01-02T03:07:03.077Z,66.90
2019-01-02T03:09:30.469Z,67.60
2019-01-02T03:11:57.883Z,66.90
2019-01-02T03:14:25.294Z,66.90
2019-01-02T03:16:53.109Z,67.30
2019-01-02T03:19:21.019Z,67.90
2019-01-02T03:21:48.815Z,67.00
2019-01-02T03:24:17.068Z,67.90
2019-01-02T03:26:44.440Z,67.20
2019-01-02T03:29:11.888Z,66.00
2019-01-02T03:31:39.679Z,66.50
2019-01-02T03:34:07.386Z,67.80
2019-01-02T03:36:34.798Z,67.10
2019-01-02T03:39:02.208Z,65.10
2019-01-02T03:41:29.627Z,65.30
2019-01-02T03:43:57.299Z,65.80
2019-01-02T03:46:24.509Z,66.60
2019-01-02T03:48:51.907Z,65.90
2019-01-02T03:51:19.297Z,66.10
2019-01-02T03:53:46.585Z,66.30
2019-01-02T03:56:13.885Z,66.70
2019-01-02T03:58:41.491Z,66.70
2019-01-02T04:01:08.906Z,66.50
2019-01-02T04:03:36.310Z,67.40
2019-01-02T04:06:03.723Z,66.20
2019-01-02T04:08:31.120Z,66.00
2019-01-02T04:10:58.431Z,65.90
2019-01-02T04:13:25.821Z,65.40
2019-01-02T04:15:53.242Z,66.50
2019-01-02T04:18:20.652Z,65.20
2019-01-02T04:20:48.250Z,66.10
2019-01-02T04:23:15.646Z,66.70
2019-01-02T04:25:42.937Z,66.00
2019-01-02T04:28:10.254Z,66.20
2019-01-02T04:30:37.656Z,65.70
2019-01-02T04:33:04.956Z,66.50
2019-01-02T04:35:32.256Z,68.40
2019-01-02T04:37:59.565Z,67.70
2019-01-02T04:40:26.834Z,67.20
2019-01-02T04:42:54.420Z,67.20
2019-01-02T04:45:22.036Z,67.80
2019-01-02T04:47:49.444Z,67.10
2019-01-02T04:50:16.778Z,67.30
2019-01-02T04:52:44.201Z,67.80
2019-01-02T04:55:11.548Z,66.90
2019-01-02T04:57:38.947Z,68.20
2019-01-02T05:00:10.092Z,68.70
2019-01-02T05:02:37.714Z,69.20
2019-01-02T05:05:05.116Z,68.50
2019-01-02T05:07:32.466Z,68.30
2019-01-02T05:10:00.164Z,69.10
2019-01-02T05:12:27.536Z,67.80
2019-01-02T05:14:54.822Z,67.10
2019-01-02T05:17:22.111Z,68.90
2019-01-02T05:19:49.400Z,68.50
2019-01-02T05:22:16.684Z,67.80
2019-01-02T05:24:43.969Z,67.00
2019-01-02T05:27:11.362Z,68.60
2019-01-02T05:29:38.748Z,68.10
2019-01-02T05:32:06.027Z,68.30
2019-01-02T05:34:33.451Z,67.10
2019-01-02T05:37:00.746Z,67.30
2019-01-02T05:39:28.135Z,66.70
2019-01-02T05:41:55.434Z,68.80
2019-01-02T05:44:22.740Z,68.20
2019-01-02T05:46:50.324Z,68.40
2019-01-02T05:49:17.698Z,67.80
2019-01-02T05:51:44.986Z,69.00
2019-01-02T05:54:12.390Z,67.90
2019-01-02T05:56:39.677Z,68.20
2019-01-02T05:59:06.968Z,67.90
2019-01-02T06:01:34.246Z,68.00
2019-01-02T06:04:01.596Z,68.20
2019-01-02T06:06:28.875Z,66.90
2019-01-02T06:08:56.170Z,66.70
2019-01-02T06:11:23.496Z,68.10
2019-01-02T06:13:50.884Z,67.80
2019-01-02T06:16:18.189Z,66.50
2019-01-02T06:18:45.491Z,67.00
2019-01-02T06:21:12.979Z,65.80
2019-01-02T06:23:40.371Z,65.20
2019-01-02T06:26:07.754Z,66.20
2019-01-02T06:28:35.058Z,66.20
2019-01-02T06:31:02.387Z,64.60
2019-01-02T06:33:29.780Z,66.50
2019-01-02T06:35:57.096Z,65.90
2019-01-02T06:38:24.404Z,67.70
2019-01-02T06:40:51.808Z,67.50
2019-01-02T06:43:19.099Z,68.60
2019-01-02T06:45:46.442Z,67.40
2019-01-02T06:48:13.788Z,68.20
2019-01-02T06:50:41.187Z,67.90
2019-01-02T06:53:08.580Z,68.30
2019-01-02T06:55:35.920Z,68.60
2019-01-02T06:58:03.311Z,68.90
2019-01-02T07:00:36.531Z,68.50
2019-01-02T07:03:04.138Z,68.50
2019-01-02T07:05:31.584Z,68.10
2019-01-02T07:07:58.973Z,67.80
2019-01-02T07:10:26.646Z,69.60
2019-01-02T07:12:54.064Z,70.30
2019-01-02T07:15:21.490Z,69.00
2019-01-02T07:17:48.860Z,68.70
2019-01-02T07:20:16.148Z,69.30
2019-01-02T07:22:43.437Z,69.20
2019-01-02T07:25:10.770Z,69.70
2019-01-02T07:27:38.148Z,70.00
2019-01-02T07:30:09.068Z,71.30
2019-01-02T07:32:36.486Z,71.30
2019-01-02T07:35:34.867Z,70.20
2019-01-02T07:38:52.318Z,69.00
2019-01-02T07:41:52.970Z,69.60
2019-01-02T07:45:04.227Z,69.50
2019-01-02T07:48:08.265Z,68.90
2019-01-02T07:51:12.313Z,68.50
2019-01-02T07:54:16.349Z,69.90
2019-01-02T07:57:28.705Z,70.10
2019-01-02T08:00:24.504Z,69.70
2019-01-02T08:03:26.495Z,68.00
2019-01-02T08:06:48.175Z,69.10
2019-01-02T08:09:37.820Z,69.40
2019-01-02T08:12:27.793Z,69.00
2019-01-02T08:15:29.395Z,69.00
2019-01-02T08:18:12.996Z,69.40
2019-01-02T08:21:27.017Z,69.20
2019-01-02T08:24:42.519Z,68.30
2019-01-02T08:27:43.041Z,70.80
2019-01-02T08:30:34.896Z,70.10
2019-01-02T08:33:28.679Z,70.90
2019-01-02T08:36:36.982Z,70.50
2019-01-02T08:39:49.022Z,68.50
2019-01-02T08:43:10.601Z,69.20
2019-01-02T08:46:21.445Z,69.60
2019-01-02T08:49:11.143Z,70.30
2019-01-02T08:52:26.967Z,69.60
2019-01-02T08:55:41.400Z,69.90
2019-01-02T08:58:46.947Z,69.70
2019-01-02T09:01:45.230Z,71.00
2019-01-02T09:04:25.906Z,70.10
2019-01-02T09:07:49.745Z,69.80
2019-01-02T09:10:47.977Z,68.00
2019-01-02T09:13:47.275Z,67.40
2019-01-02T09:16:37.857Z,69.60
2019-01-02T09:19:44.194Z,68.00
2019-01-02T09:22:38.027Z,70.30
2019-01-02T09:25:46.316Z,69.70
2019-01-02T09:29:01.823Z,69.80
2019-01-02T09:31:51.256Z,68.90
2019-01-02T09:34:35.815Z,66.40
2019-01-02T09:37:43.723Z,67.10
2019-01-02T09:40:32.414Z,67.40
2019-01-02T09:44:03.030Z,68.20
2019-01-02T09:47:11.942Z,67.00
2019-01-02T09:50:19.851Z,66.10
2019-01-02T09:53:25.186Z,66.70
2019-01-02T09:56:46.605Z,68.20
2019-01-02T10:00:00.792Z,67.10
2019-01-02T10:02:52.700Z,70.00
2019-01-02T10:05:54.313Z,68.70
2019-01-02T10:09:01.953Z,67.10
2019-01-02T10:12:17.779Z,66.90
2019-01-02T10:15:45.421Z,66.00
2019-01-02T10:19:19.119Z,67.30
2019-01-02T10:22:16.736Z,65.90
2019-01-02T10:25:16.836Z,66.60
2019-01-02T10:28:18.041Z,66.00
2019-01-02T10:31:29.232Z,66.40
2019-01-02T10:34:30.881Z,66.50
2019-01-02T10:37:37.775Z,65.00
2019-01-02T10:40:39.462Z,66.70
2019-01-02T10:43:39.865Z,64.20
2019-01-02T10:46:40.875Z,64.30
2019-01-02T10:49:45.731Z,65.30
2019-01-02T10:53:10.353Z,64.10
2019-01-02T10:56:34.637Z,64.80
2019-01-02T10:59:53.101Z,67.30
2019-01-02T11:03:01.250Z,67.00
2019-01-02T11:06:13.261Z,66.30
2019-01-02T11:09:40.596Z,67.60
2019-01-02T11:12:48.709Z,67.00
2019-01-02T11:15:56.293Z,67.20
2019-01-02T11:18:42.231Z,65.90
2019-01-02T11:21:42.254Z,64.50
2019-01-02T11:25:05.757Z,65.40
2019-01-02T11:28:26.260Z,65.60
2019-01-02T11:31:36.161Z,65.30
2019-01-02T11:34:41.453Z,66.10
2019-01-02T11:37:38.501Z,68.30
2019-01-02T11:40:34.202Z,67.50
2019-01-02T11:43:27.288Z,66.50
2019-01-02T11:45:54.689Z,66.60
2019-01-02T11:48:22.126Z,65.30
2019-01-02T11:50:49.564Z,66.10
2019-01-02T11:53:17.013Z,66.80
2019-01-02T11:55:44.434Z,65.70
2019-01-02T11:58:11.746Z,66.20
2019-01-02T12:00:39.183Z,67.00
2019-01-02T12:03:06.617Z,67.20
2019-01-02T12:05:33.952Z,66.90
2019-01-02T12:08:02.099Z,67.20
2019-01-02T12:10:29.776Z,68.30
2019-01-02T12:12:57.506Z,67.50
2019-01-02T12:15:25.053Z,66.20
2019-01-02T12:17:52.620Z,67.80
2019-01-02T12:20:20.420Z,69.60
2019-01-02T12:22:48.120Z,70.60
2019-01-02T12:25:15.675Z,69.10
2019-01-02T12:27:43.233Z,70.50
2019-01-02T12:30:13.002Z,70.50
2019-01-02T12:32:40.543Z,71.50
2019-01-02T12:35:08.502Z,70.50
2019-01-02T12:37:36.381Z,69.60
2019-01-02T12:40:04.998Z,69.20
2019-01-02T12:42:32.560Z,69.00
2019-01-02T12:45:00.080Z,68.40
2019-01-02T12:47:27.690Z,68.10
2019-01-02T12:49:55.632Z,68.80
2019-01-02T12:52:23.219Z,69.20
2019-01-02T12:54:50.684Z,67.80
2019-01-02T12:57:18.507Z,67.60
2019-01-02T12:59:46.300Z,67.80
2019-01-02T13:03:23.386Z,66.00
2019-01-02T13:06:40.809Z,65.60
2019-01-02T13:09:50.067Z,66.10
2019-01-02T13:12:52.181Z,66.40
2019-01-02T13:15:56.148Z,65.00
2019-01-02T13:18:38.043Z,67.30
2019-01-02T13:21:30.402Z,65.10
2019-01-02T13:24:26.440Z,65.80
2019-01-02T13:27:23.795Z,66.40
2019-01-02T13:30:37.736Z,66.20
2019-01-02T13:33:57.064Z,66.10
2019-01-02T13:37:09.505Z,62.80
2019-01-02T13:40:43.067Z,60.90
2019-01-02T13:43:36.304Z,62.70
2019-01-02T13:46:21.620Z,64.10
2019-01-02T13:49:14.037Z,65.90
2019-01-02T13:51:47.525Z,66.70
2019-01-02T13:54:15.068Z,66.70
2019-01-02T13:56:42.729Z,67.00
2019-01-02T13:59:10.187Z,66.30
2019-01-02T14:01:37.763Z,67.40
2019-01-02T14:04:07.157Z,70.50
2019-01-02T14:06:34.658Z,70.00
2019-01-02T14:09:02.321Z,70.50
2019-01-02T14:11:29.750Z,69.60
2019-01-02T14:13:57.215Z,69.60
2019-01-02T14:16:24.829Z,70.40
2019-01-02T14:18:52.744Z,69.50
2019-01-02T14:21:20.435Z,69.70
2019-01-02T14:23:48.068Z,69.70
2019-01-02T14:26:15.580Z,68.70
2019-01-02T14:28:42.976Z,67.40
2019-01-02T14:31:10.513Z,68.00
2019-01-02T14:33:37.948Z,68.30
2019-01-02T14:36:05.350Z,67.70
2019-01-02T14:38:32.789Z,66.50
2019-01-02T14:41:00.211Z,66.70
2019-01-02T14:43:27.638Z,67.50
2019-01-02T14:45:54.957Z,68.00
2019-01-02T14:48:22.663Z,68.10
2019-01-02T14:50:50.062Z,68.70
2019-01-02T14:53:17.792Z,68.10
2019-01-02T14:55:45.215Z,68.90
2019-01-02T14:58:12.641Z,68.20
2019-01-02T15:00:40.103Z,68.10
2019-01-02T15:03:07.494Z,67.80
2019-01-02T15:05:35.185Z,67.10
2019-01-02T15:08:02.969Z,66.80
2019-01-02T15:10:30.411Z,66.20
2019-01-02T15:12:57.863Z,66.40
2019-01-02T15:15:25.605Z,66.40
2019-01-02T15:17:53.063Z,65.30
2019-01-02T15:20:20.846Z,69.90
2019-01-02T15:22:48.931Z,73.50
2019-01-02T15:25:16.451Z,73.90
2019-01-02T15:27:43.932Z,79.00
2019-01-02T15:30:12.363Z,79.00
2019-01-02T15:32:39.843Z,76.00
2019-01-02T15:35:08.129Z,76.40
2019-01-02T15:37:35.515Z,74.70
2019-01-02T15:40:03.158Z,74.80
2019-01-02T15:42:30.583Z,74.70
2019-01-02T15:44:57.981Z,75.30
2019-01-02T15:47:25.304Z,78.60
2019-01-02T15:49:52.875Z,77.10
2019-01-02T15:52:20.518Z,75.70
2019-01-02T15:54:47.909Z,75.90
2019-01-02T15:57:15.505Z,74.00
2019-01-02T15:59:42.861Z,73.80
2019-01-02T16:02:10.373Z,74.30
2019-01-02T16:04:41.041Z,72.80
2019-01-02T16:07:06.969Z,70.90
2019-01-02T16:09:34.427Z,71.00
2019-01-02T16:12:01.902Z,68.60
2019-01-02T16:14:29.353Z,70.20
2019-01-02T16:16:56.726Z,69.90
2019-01-02T16:19:24.212Z,70.10
2019-01-02T16:21:51.682Z,67.80
2019-01-02T16:24:19.404Z,69.40
2019-01-02T16:26:46.885Z,68.80
2019-01-02T16:29:14.357Z,68.00
2019-01-02T16:31:42.198Z,68.30
2019-01-02T16:34:10.015Z,68.10
2019-01-02T16:36:37.432Z,68.10
2019-01-02T16:39:07.124Z,67.60
2019-01-02T16:41:34.566Z,68.00
2019-01-02T16:44:01.915Z,67.80
2019-01-02T16:46:29.299Z,67.10
2019-01-02T16:48:56.793Z,68.80
2019-01-02T16:51:24.302Z,67.30
2019-01-02T16:53:51.794Z,67.80
2019-01-02T16:56:19.249Z,67.10
2019-01-02T16:58:46.713Z,66.20
2019-01-02T17:01:14.123Z,67.40
2019-01-02T17:03:41.905Z,67.30
2019-01-02T17:06:09.346Z,67.60
2019-01-02T17:08:37.559Z,68.00
2019-01-02T17:11:05.049Z,67.60
2019-01-02T17:13:32.769Z,67.20
2019-01-02T17:16:00.108Z,67.30
2019-01-02T17:18:27.632Z,66.00
2019-01-02T17:20:55.339Z,67.20
2019-01-02T17:23:22.681Z,67.00
2019-01-02T17:25:50.144Z,66.50
2019-01-02T17:28:17.508Z,66.50
2019-01-02T17:30:45.738Z,65.10
2019-01-02T17:33:13.146Z,65.70
2019-01-02T17:35:40.646Z,67.30
2019-01-02T17:38:08.030Z,66.70
2019-01-02T17:40:35.482Z,66.30
2019-01-02T17:43:03.396Z,65.00
2019-01-02T17:45:30.904Z,66.10
2019-01-02T17:47:58.362Z,65.60
2019-01-02T17:50:25.799Z,64.20
2019-01-02T17:52:54.098Z,67.00
2019-01-02T17:55:21.619Z,66.00
2019-01-02T17:57:49.050Z,65.70
2019-01-02T18:00:16.509Z,65.40
2019-01-02T18:02:43.951Z,64.80
2019-01-02T18:05:11.684Z,64.00
2019-01-02T18:07:39.160Z,64.80
2019-01-02T18:10:07.688Z,62.50
2019-01-02T18:12:35.155Z,63.70
2019-01-02T18:15:02.713Z,62.50
2019-01-02T18:17:30.147Z,64.20
2019-01-02T18:19:57.622Z,64.30
2019-01-02T18:22:25.106Z,64.30
2019-01-02T18:24:52.579Z,64.70
2019-01-02T18:27:20.065Z,63.60
2019-01-02T18:29:47.566Z,63.50
2019-01-02T18:32:15.317Z,63.40
2019-01-02T18:34:42.840Z,63.40
2019-01-02T18:37:10.396Z,63.40
2019-01-02T18:39:37.873Z,63.50
2019-01-02T18:42:05.372Z,63.90
2019-01-02T18:44:32.878Z,63.80
2019-01-02T18:47:00.361Z,63.90
2019-01-02T18:49:27.831Z,64.30
2019-01-02T18:51:55.374Z,63.80
2019-01-02T18:54:22.820Z,64.00
2019-01-02T18:56:50.277Z,64.30
2019-01-02T18:59:17.805Z,64.40
2019-01-02T19:01:45.302Z,64.30
2019-01-02T19:04:12.812Z,63.80
2019-01-02T19:06:40.358Z,63.30
2019-01-02T19:09:07.877Z,64.30
2019-01-02T19:11:35.851Z,63.80
2019-01-02T19:14:03.255Z,64.50
2019-01-02T19:16:30.752Z,64.30
2019-01-02T19:18:58.302Z,63.00
2019-01-02T19:21:26.094Z,64.40
2019-01-02T19:23:54.002Z,64.30
2019-01-02T19:26:21.537Z,63.60
2019-01-02T19:28:49.004Z,63.90
2019-01-02T19:31:16.462Z,63.50
2019-01-02T19:33:43.967Z,63.80
2019-01-02T19:36:11.402Z,63.20
2019-01-02T19:38:38.833Z,63.60
2019-01-02T19:41:06.616Z,63.50
2019-01-02T19:43:34.000Z,63.40
2019-01-02T19:46:02.161Z,63.00
2019-01-02T19:48:29.656Z,62.80
2019-01-02T19:50:57.391Z,62.90
2019-01-02T19:53:24.839Z,63.10
2019-01-02T19:55:52.322Z,63.20
2019-01-02T19:58:19.866Z,62.90
2019-01-02T20:00:47.271Z,63.00
2019-01-02T20:03:15.022Z,62.50
2019-01-02T20:05:42.529Z,62.60
2019-01-02T20:08:10.028Z,62.00
2019-01-02T20:10:37.469Z,61.80
2019-01-02T20:13:05.238Z,62.00
2019-01-02T20:15:32.764Z,61.80
2019-01-02T20:18:00.250Z,61.80
2019-01-02T20:20:28.049Z,61.50
2019-01-02T20:22:55.503Z,61.40
2019-01-02T20:25:23.070Z,61.60
2019-01-02T20:27:50.491Z,61.70
2019-01-02T20:30:17.953Z,61.60
2019-01-02T20:32:45.452Z,61.70
2019-01-02T20:35:12.939Z,61.60
2019-01-02T20:37:40.361Z,60.20
2019-01-02T20:40:08.166Z,61.10
2019-01-02T20:42:35.624Z,60.60
2019-01-02T20:45:03.638Z,60.70
2019-01-02T20:47:31.141Z,61.00
2019-01-02T20:49:58.579Z,60.10
2019-01-02T20:52:26.079Z,59.10
2019-01-02T20:54:53.553Z,60.10
2019-01-02T20:57:21.327Z,59.40
2019-01-02T20:59:48.797Z,59.50
2019-01-02T21:02:16.665Z,60.50
2019-01-02T21:04:44.192Z,59.90
2019-01-02T21:07:11.696Z,59.70
2019-01-02T21:09:39.197Z,59.80
2019-01-02T21:12:06.659Z,58.70
2019-01-02T21:14:34.393Z,59.20
2019-01-02T21:17:01.882Z,59.90
2019-01-02T21:19:29.636Z,58.90
2019-01-02T21:21:57.150Z,58.50
2019-01-02T21:24:24.672Z,56.20
2019-01-02T21:26:52.298Z,59.80
2019-01-02T21:29:19.756Z,60.30
2019-01-02T21:31:47.291Z,58.80
2019-01-02T21:34:14.797Z,60.10
2019-01-02T21:36:42.364Z,60.20
2019-01-02T21:39:09.791Z,59.20
2019-01-02T21:41:37.324Z,60.20
2019-01-02T21:44:04.766Z,60.30
2019-01-02T21:46:32.235Z,60.90
2019-01-02T21:48:59.826Z,60.60
2019-01-02T21:51:27.655Z,60.90
2019-01-02T21:53:55.611Z,60.20
2019-01-02T21:56:23.095Z,60.30
2019-01-02T21:58:50.881Z,60.40
2019-01-02T22:01:18.374Z,60.90
2019-01-02T22:03:46.193Z,60.60
2019-01-02T22:06:13.662Z,60.60
2019-01-02T22:08:41.476Z,61.50
2019-01-02T22:11:09.163Z,61.10
2019-01-02T22:13:36.835Z,60.30
2019-01-02T22:16:04.285Z,60.80
2019-01-02T22:18:31.846Z,61.10
2019-01-02T22:20:59.313Z,60.90
2019-01-02T22:23:27.150Z,60.90
2019-01-02T22:25:55.008Z,60.80
2019-01-02T22:28:22.798Z,60.80
2019-01-02T22:30:50.180Z,60.70
2019-01-02T22:33:17.681Z,60.40
2019-01-02T22:35:45.120Z,60.30
2019-01-02T22:38:12.916Z,60.60
2019-01-02T22:40:40.392Z,60.90
2019-01-02T22:43:08.140Z,60.20
2019-01-02T22:45:35.637Z,59.90
2019-01-02T22:48:03.070Z,59.60
2019-01-02T22:50:30.546Z,60.00
2019-01-02T22:52:57.995Z,60.20
2019-01-02T22:55:25.486Z,60.60
2019-01-02T22:57:52.923Z,60.60
2019-01-02T23:00:38.904Z,59.80
2019-01-02T23:03:28.762Z,60.70
2019-01-02T23:06:13.551Z,60.60
2019-01-02T23:08:59.269Z,59.70
2019-01-02T23:11:49.494Z,60.40
2019-01-02T23:14:35.231Z,60.40
2019-01-02T23:17:24.757Z,60.30
2019-01-02T23:20:17.948Z,60.20
2019-01-02T23:23:10.964Z,59.60
2019-01-02T23:25:56.456Z,59.90
2019-01-02T23:28:49.613Z,59.90
2019-01-02T23:31:45.885Z,59.70
2019-01-02T23:34:38.395Z,59.80
2019-01-02T23:37:24.217Z,59.60
2019-01-02T23:40:17.449Z,59.80
2019-01-02T23:43:10.690Z,59.70
2019-01-02T23:46:13.113Z,59.60
2019-01-02T23:49:00.088Z,59.40
2019-01-02T23:51:45.676Z,59.30
2019-01-02T23:54:31.637Z,59.60
2019-01-02T23:57:17.485Z,59.30
